sensor_id;sensor_type;location;lat;lon;timestamp;temperature;humidity
21928;DHT22;11128;51.096;17.190;2022-10-16T00:01:28;12.40;99.90
21928;DHT22;11128;51.096;17.190;2022-10-16T00:06:31;12.40;99.90
21928;DHT22;11128;51.096;17.190;2022-10-16T00:11:35;12.40;99.90
21928;DHT22;11128;51.096;17.190;2022-10-16T00:16:38;12.30;99.90
21928;DHT22;11128;51.096;17.190;2022-10-16T00:21:40;12.40;99.90
21928;DHT22;11128;51.096;17.190;2022-10-16T00:26:41;12.40;99.90
21928;DHT22;11128;51.096;17.190;2022-10-16T00:31:43;12.50;99.90
21928;DHT22;11128;51.096;17.190;2022-10-16T00:36:45;12.50;99.90
21928;DHT22;11128;51.096;17.190;2022-10-16T00:41:46;12.60;99.90
21928;DHT22;11128;51.096;17.190;2022-10-16T00:46:48;12.60;99.90
21928;DHT22;11128;51.096;17.190;2022-10-16T00:51:53;12.70;99.90
21928;DHT22;11128;51.096;17.190;2022-10-16T00:56:56;12.60;99.90
21928;DHT22;11128;51.096;17.190;2022-10-16T01:02:01;12.50;99.90
21928;DHT22;11128;51.096;17.190;2022-10-16T01:12:40;12.40;99.90
21928;DHT22;11128;51.096;17.190;2022-10-16T01:17:45;12.40;99.90
21928;DHT22;11128;51.096;17.190;2022-10-16T01:29:20;12.40;99.90
21928;DHT22;11128;51.096;17.190;2022-10-16T01:34:09;12.40;99.90
21928;DHT22;11128;51.096;17.190;2022-10-16T01:39:13;12.50;99.90
21928;DHT22;11128;51.096;17.190;2022-10-16T01:44:21;12.50;99.90
21928;DHT22;11128;51.096;17.190;2022-10-16T01:49:27;12.50;99.90
21928;DHT22;11128;51.096;17.190;2022-10-16T01:54:32;12.50;99.90
21928;DHT22;11128;51.096;17.190;2022-10-16T01:59:38;12.50;99.90
21928;DHT22;11128;51.096;17.190;2022-10-16T02:04:49;12.50;99.90
21928;DHT22;11128;51.096;17.190;2022-10-16T02:09:54;12.50;99.90
21928;DHT22;11128;51.096;17.190;2022-10-16T02:14:55;12.60;99.90
21928;DHT22;11128;51.096;17.190;2022-10-16T02:19:58;12.60;99.90
21928;DHT22;11128;51.096;17.190;2022-10-16T02:30:14;12.60;99.90
21928;DHT22;11128;51.096;17.190;2022-10-16T02:35:20;12.50;99.90
21928;DHT22;11128;51.096;17.190;2022-10-16T02:40:22;12.50;99.90
21928;DHT22;11128;51.096;17.190;2022-10-16T02:45:25;12.50;99.90
21928;DHT22;11128;51.096;17.190;2022-10-16T02:50:26;12.50;99.90
21928;DHT22;11128;51.096;17.190;2022-10-16T02:55:28;12.50;99.90
21928;DHT22;11128;51.096;17.190;2022-10-16T03:00:30;12.50;99.90
21928;DHT22;11128;51.096;17.190;2022-10-16T03:05:32;12.50;99.90
21928;DHT22;11128;51.096;17.190;2022-10-16T03:10:33;12.50;99.90
21928;DHT22;11128;51.096;17.190;2022-10-16T03:15:35;12.50;99.90
21928;DHT22;11128;51.096;17.190;2022-10-16T03:20:36;12.50;99.90
21928;DHT22;11128;51.096;17.190;2022-10-16T03:25:39;12.60;99.90
21928;DHT22;11128;51.096;17.190;2022-10-16T03:30:40;12.60;99.90
21928;DHT22;11128;51.096;17.190;2022-10-16T03:35:42;12.60;99.90
21928;DHT22;11128;51.096;17.190;2022-10-16T03:40:43;12.60;99.90
21928;DHT22;11128;51.096;17.190;2022-10-16T03:45:45;12.60;99.90
21928;DHT22;11128;51.096;17.190;2022-10-16T03:50:46;12.70;99.90
21928;DHT22;11128;51.096;17.190;2022-10-16T03:55:49;12.70;99.90
21928;DHT22;11128;51.096;17.190;2022-10-16T04:00:51;12.70;99.90
21928;DHT22;11128;51.096;17.190;2022-10-16T04:05:53;12.80;99.90
21928;DHT22;11128;51.096;17.190;2022-10-16T04:10:55;12.80;99.90
21928;DHT22;11128;51.096;17.190;2022-10-16T04:15:56;12.80;99.90
21928;DHT22;11128;51.096;17.190;2022-10-16T04:21:03;12.80;99.90
21928;DHT22;11128;51.096;17.190;2022-10-16T04:26:05;12.90;99.90
21928;DHT22;11128;51.096;17.190;2022-10-16T04:31:07;12.80;99.90
21928;DHT22;11128;51.096;17.190;2022-10-16T04:36:08;12.80;99.90
21928;DHT22;11128;51.096;17.190;2022-10-16T04:41:10;12.80;99.90
21928;DHT22;11128;51.096;17.190;2022-10-16T04:46:12;12.90;99.90
21928;DHT22;11128;51.096;17.190;2022-10-16T04:51:13;12.80;99.90
21928;DHT22;11128;51.096;17.190;2022-10-16T04:56:15;12.80;99.90
21928;DHT22;11128;51.096;17.190;2022-10-16T05:01:17;12.80;99.90
21928;DHT22;11128;51.096;17.190;2022-10-16T05:06:18;12.80;99.90
21928;DHT22;11128;51.096;17.190;2022-10-16T05:11:20;12.80;99.90
21928;DHT22;11128;51.096;17.190;2022-10-16T05:16:21;12.80;99.90
21928;DHT22;11128;51.096;17.190;2022-10-16T05:21:23;12.80;99.90
21928;DHT22;11128;51.096;17.190;2022-10-16T05:26:24;12.80;99.90
21928;DHT22;11128;51.096;17.190;2022-10-16T05:31:26;12.70;99.90
21928;DHT22;11128;51.096;17.190;2022-10-16T05:36:27;12.80;99.90
21928;DHT22;11128;51.096;17.190;2022-10-16T05:41:29;12.80;99.90
21928;DHT22;11128;51.096;17.190;2022-10-16T05:46:30;12.70;99.90
21928;DHT22;11128;51.096;17.190;2022-10-16T05:51:32;12.80;99.90
21928;DHT22;11128;51.096;17.190;2022-10-16T05:56:34;12.80;99.90
21928;DHT22;11128;51.096;17.190;2022-10-16T06:01:35;12.90;99.90
21928;DHT22;11128;51.096;17.190;2022-10-16T06:06:37;13.00;99.90
21928;DHT22;11128;51.096;17.190;2022-10-16T06:11:39;13.00;99.90
21928;DHT22;11128;51.096;17.190;2022-10-16T06:16:40;13.20;99.90
21928;DHT22;11128;51.096;17.190;2022-10-16T06:21:42;13.30;99.90
21928;DHT22;11128;51.096;17.190;2022-10-16T06:26:43;13.50;99.90
21928;DHT22;11128;51.096;17.190;2022-10-16T06:31:45;13.60;99.90
21928;DHT22;11128;51.096;17.190;2022-10-16T06:36:46;13.80;99.90
21928;DHT22;11128;51.096;17.190;2022-10-16T06:41:48;14.00;99.90
21928;DHT22;11128;51.096;17.190;2022-10-16T06:46:50;14.20;99.90
21928;DHT22;11128;51.096;17.190;2022-10-16T06:51:52;14.40;99.90
21928;DHT22;11128;51.096;17.190;2022-10-16T06:56:54;14.50;99.90
21928;DHT22;11128;51.096;17.190;2022-10-16T07:01:55;14.60;99.10
21928;DHT22;11128;51.096;17.190;2022-10-16T07:06:57;14.80;22.60
21928;DHT22;11128;51.096;17.190;2022-10-16T07:11:58;14.90;1.00
21928;DHT22;11128;51.096;17.190;2022-10-16T07:17:00;14.90;1.00
21928;DHT22;11128;51.096;17.190;2022-10-16T07:22:01;15.00;1.00
21928;DHT22;11128;51.096;17.190;2022-10-16T07:27:03;15.10;1.00
21928;DHT22;11128;51.096;17.190;2022-10-16T07:32:05;15.20;1.00
21928;DHT22;11128;51.096;17.190;2022-10-16T07:37:06;15.20;1.00
21928;DHT22;11128;51.096;17.190;2022-10-16T07:42:08;15.20;1.00
21928;DHT22;11128;51.096;17.190;2022-10-16T07:47:10;15.30;1.00
21928;DHT22;11128;51.096;17.190;2022-10-16T07:52:11;15.50;1.00
21928;DHT22;11128;51.096;17.190;2022-10-16T07:57:13;15.50;1.00
21928;DHT22;11128;51.096;17.190;2022-10-16T08:02:20;15.60;1.00
21928;DHT22;11128;51.096;17.190;2022-10-16T08:07:24;15.80;1.00
21928;DHT22;11128;51.096;17.190;2022-10-16T08:12:26;15.90;99.90
21928;DHT22;11128;51.096;17.190;2022-10-16T08:17:27;16.10;99.90
21928;DHT22;11128;51.096;17.190;2022-10-16T08:22:29;16.20;1.00
21928;DHT22;11128;51.096;17.190;2022-10-16T08:27:32;16.40;1.00
21928;DHT22;11128;51.096;17.190;2022-10-16T08:32:33;16.60;99.90
21928;DHT22;11128;51.096;17.190;2022-10-16T08:37:35;16.70;99.90
21928;DHT22;11128;51.096;17.190;2022-10-16T08:43:01;16.90;1.00
21928;DHT22;11128;51.096;17.190;2022-10-16T08:53:34;16.90;99.90
21928;DHT22;11128;51.096;17.190;2022-10-16T08:58:39;17.30;1.00
21928;DHT22;11128;51.096;17.190;2022-10-16T09:19:48;17.70;99.90
21928;DHT22;11128;51.096;17.190;2022-10-16T09:24:52;17.80;1.00
21928;DHT22;11128;51.096;17.190;2022-10-16T09:29:55;17.90;1.00
21928;DHT22;11128;51.096;17.190;2022-10-16T09:34:56;18.00;1.00
21928;DHT22;11128;51.096;17.190;2022-10-16T09:39:58;18.20;1.00
21928;DHT22;11128;51.096;17.190;2022-10-16T09:45:01;18.50;99.90
21928;DHT22;11128;51.096;17.190;2022-10-16T09:50:24;18.70;1.00
21928;DHT22;11128;51.096;17.190;2022-10-16T09:55:27;18.80;1.00
21928;DHT22;11128;51.096;17.190;2022-10-16T10:00:29;19.00;1.00
21928;DHT22;11128;51.096;17.190;2022-10-16T10:05:31;19.10;1.00
21928;DHT22;11128;51.096;17.190;2022-10-16T10:10:40;19.60;1.00
21928;DHT22;11128;51.096;17.190;2022-10-16T10:15:42;20.50;1.00
21928;DHT22;11128;51.096;17.190;2022-10-16T10:20:44;21.30;99.90
21928;DHT22;11128;51.096;17.190;2022-10-16T10:31:26;23.00;99.90
21928;DHT22;11128;51.096;17.190;2022-10-16T11:02:41;25.30;94.80
21928;DHT22;11128;51.096;17.190;2022-10-16T11:13:25;25.90;1.00
21928;DHT22;11128;51.096;17.190;2022-10-16T11:24:00;26.00;1.00
21928;DHT22;11128;51.096;17.190;2022-10-16T11:29:04;25.70;1.00
21928;DHT22;11128;51.096;17.190;2022-10-16T11:34:38;25.80;1.00
21928;DHT22;11128;51.096;17.190;2022-10-16T11:39:44;24.90;1.00
21928;DHT22;11128;51.096;17.190;2022-10-16T11:55:34;25.00;7.10
21928;DHT22;11128;51.096;17.190;2022-10-16T12:00:51;25.10;1.00
21928;DHT22;11128;51.096;17.190;2022-10-16T12:16:29;23.90;52.60
21928;DHT22;11128;51.096;17.190;2022-10-16T12:21:31;22.90;99.90
21928;DHT22;11128;51.096;17.190;2022-10-16T12:26:36;22.10;99.90
21928;DHT22;11128;51.096;17.190;2022-10-16T12:31:44;21.80;1.00
21928;DHT22;11128;51.096;17.190;2022-10-16T12:36:47;21.50;1.00
21928;DHT22;11128;51.096;17.190;2022-10-16T12:42:01;21.20;1.00
21928;DHT22;11128;51.096;17.190;2022-10-16T12:47:03;20.90;1.00
21928;DHT22;11128;51.096;17.190;2022-10-16T12:52:22;20.70;99.90
21928;DHT22;11128;51.096;17.190;2022-10-16T13:02:57;20.50;99.90
21928;DHT22;11128;51.096;17.190;2022-10-16T13:19:26;20.50;99.90
21928;DHT22;11128;51.096;17.190;2022-10-16T13:30:02;20.50;99.90
21928;DHT22;11128;51.096;17.190;2022-10-16T13:35:31;20.50;99.90
21928;DHT22;11128;51.096;17.190;2022-10-16T13:40:33;20.60;99.90
21928;DHT22;11128;51.096;17.190;2022-10-16T13:45:36;20.80;99.90
21928;DHT22;11128;51.096;17.190;2022-10-16T13:50:38;21.10;22.80
21928;DHT22;11128;51.096;17.190;2022-10-16T13:55:39;21.70;1.00
21928;DHT22;11128;51.096;17.190;2022-10-16T14:00:56;23.40;99.90
21928;DHT22;11128;51.096;17.190;2022-10-16T14:06:01;24.80;99.90
21928;DHT22;11128;51.096;17.190;2022-10-16T14:11:03;26.00;6.40
21928;DHT22;11128;51.096;17.190;2022-10-16T14:16:08;26.50;1.00
21928;DHT22;11128;51.096;17.190;2022-10-16T14:21:13;26.30;1.00
21928;DHT22;11128;51.096;17.190;2022-10-16T14:26:21;26.20;1.00
21928;DHT22;11128;51.096;17.190;2022-10-16T14:31:41;25.50;1.00
21928;DHT22;11128;51.096;17.190;2022-10-16T14:36:43;24.50;1.00
21928;DHT22;11128;51.096;17.190;2022-10-16T14:41:48;23.30;96.10
21928;DHT22;11128;51.096;17.190;2022-10-16T14:46:49;22.70;99.90
21928;DHT22;11128;51.096;17.190;2022-10-16T14:51:51;22.40;99.90
21928;DHT22;11128;51.096;17.190;2022-10-16T14:56:58;22.00;1.00
21928;DHT22;11128;51.096;17.190;2022-10-16T15:02:02;21.80;1.00
21928;DHT22;11128;51.096;17.190;2022-10-16T15:07:10;21.60;1.00
21928;DHT22;11128;51.096;17.190;2022-10-16T15:12:12;21.40;1.00
21928;DHT22;11128;51.096;17.190;2022-10-16T15:17:14;21.30;1.00
21928;DHT22;11128;51.096;17.190;2022-10-16T15:22:15;21.20;1.00
21928;DHT22;11128;51.096;17.190;2022-10-16T15:27:17;21.00;83.20
21928;DHT22;11128;51.096;17.190;2022-10-16T15:32:18;20.80;99.90
21928;DHT22;11128;51.096;17.190;2022-10-16T15:37:20;20.70;99.90
21928;DHT22;11128;51.096;17.190;2022-10-16T15:42:22;20.40;1.00
21928;DHT22;11128;51.096;17.190;2022-10-16T15:47:23;20.20;1.00
21928;DHT22;11128;51.096;17.190;2022-10-16T15:52:25;19.90;99.90
21928;DHT22;11128;51.096;17.190;2022-10-16T15:57:28;19.70;99.90
21928;DHT22;11128;51.096;17.190;2022-10-16T16:02:30;19.50;1.00
21928;DHT22;11128;51.096;17.190;2022-10-16T16:07:33;19.20;1.00
21928;DHT22;11128;51.096;17.190;2022-10-16T16:12:36;19.10;99.90
21928;DHT22;11128;51.096;17.190;2022-10-16T16:17:38;19.00;99.90
21928;DHT22;11128;51.096;17.190;2022-10-16T16:22:40;18.90;99.90
21928;DHT22;11128;51.096;17.190;2022-10-16T16:27:42;18.80;1.00
21928;DHT22;11128;51.096;17.190;2022-10-16T16:32:45;18.70;1.00
21928;DHT22;11128;51.096;17.190;2022-10-16T16:37:47;18.60;21.50
21928;DHT22;11128;51.096;17.190;2022-10-16T16:42:49;18.50;99.60
21928;DHT22;11128;51.096;17.190;2022-10-16T16:47:51;18.50;99.90
21928;DHT22;11128;51.096;17.190;2022-10-16T16:52:53;18.40;99.90
21928;DHT22;11128;51.096;17.190;2022-10-16T16:57:55;18.40;99.90
21928;DHT22;11128;51.096;17.190;2022-10-16T17:02:58;18.30;99.90
21928;DHT22;11128;51.096;17.190;2022-10-16T17:07:59;18.30;1.00
21928;DHT22;11128;51.096;17.190;2022-10-16T17:13:01;18.30;99.90
21928;DHT22;11128;51.096;17.190;2022-10-16T17:18:03;18.10;1.00
21928;DHT22;11128;51.096;17.190;2022-10-16T17:23:04;18.10;1.00
21928;DHT22;11128;51.096;17.190;2022-10-16T17:28:08;18.00;99.90
21928;DHT22;11128;51.096;17.190;2022-10-16T17:33:12;18.00;99.90
21928;DHT22;11128;51.096;17.190;2022-10-16T17:38:14;17.80;99.90
21928;DHT22;11128;51.096;17.190;2022-10-16T17:43:17;17.80;1.00
21928;DHT22;11128;51.096;17.190;2022-10-16T17:48:18;17.80;1.00
21928;DHT22;11128;51.096;17.190;2022-10-16T17:53:20;17.70;99.90
21928;DHT22;11128;51.096;17.190;2022-10-16T17:58:21;17.60;99.90
21928;DHT22;11128;51.096;17.190;2022-10-16T18:03:23;17.50;1.00
21928;DHT22;11128;51.096;17.190;2022-10-16T18:08:27;17.40;99.90
21928;DHT22;11128;51.096;17.190;2022-10-16T18:13:29;17.40;99.90
21928;DHT22;11128;51.096;17.190;2022-10-16T18:18:31;17.30;99.90
21928;DHT22;11128;51.096;17.190;2022-10-16T18:23:34;17.30;1.00
21928;DHT22;11128;51.096;17.190;2022-10-16T18:28:36;17.30;1.00
21928;DHT22;11128;51.096;17.190;2022-10-16T18:33:40;17.10;29.60
21928;DHT22;11128;51.096;17.190;2022-10-16T18:38:48;17.10;99.90
21928;DHT22;11128;51.096;17.190;2022-10-16T18:43:50;17.10;1.00
21928;DHT22;11128;51.096;17.190;2022-10-16T18:48:52;17.10;1.00
21928;DHT22;11128;51.096;17.190;2022-10-16T18:54:00;17.10;1.00
21928;DHT22;11128;51.096;17.190;2022-10-16T18:59:04;17.00;1.00
21928;DHT22;11128;51.096;17.190;2022-10-16T19:04:09;17.00;1.00
21928;DHT22;11128;51.096;17.190;2022-10-16T19:09:13;17.00;99.90
21928;DHT22;11128;51.096;17.190;2022-10-16T19:14:16;17.00;1.00
21928;DHT22;11128;51.096;17.190;2022-10-16T19:19:17;16.90;1.00
21928;DHT22;11128;51.096;17.190;2022-10-16T19:24:19;16.80;1.00
21928;DHT22;11128;51.096;17.190;2022-10-16T19:29:21;16.80;1.00
21928;DHT22;11128;51.096;17.190;2022-10-16T19:34:23;16.80;1.00
21928;DHT22;11128;51.096;17.190;2022-10-16T19:39:25;16.80;1.00
21928;DHT22;11128;51.096;17.190;2022-10-16T19:44:26;16.70;17.20
21928;DHT22;11128;51.096;17.190;2022-10-16T19:49:28;16.70;1.00
21928;DHT22;11128;51.096;17.190;2022-10-16T19:54:29;16.60;23.10
21928;DHT22;11128;51.096;17.190;2022-10-16T19:59:31;16.60;1.00
21928;DHT22;11128;51.096;17.190;2022-10-16T20:04:32;16.50;96.00
21928;DHT22;11128;51.096;17.190;2022-10-16T20:09:34;16.50;99.90
21928;DHT22;11128;51.096;17.190;2022-10-16T20:14:35;16.50;1.00
21928;DHT22;11128;51.096;17.190;2022-10-16T20:19:38;16.40;1.00
21928;DHT22;11128;51.096;17.190;2022-10-16T20:24:40;16.30;35.20
21928;DHT22;11128;51.096;17.190;2022-10-16T20:29:41;16.20;92.60
21928;DHT22;11128;51.096;17.190;2022-10-16T20:34:43;16.00;1.00
21928;DHT22;11128;51.096;17.190;2022-10-16T20:39:49;15.80;99.90
21928;DHT22;11128;51.096;17.190;2022-10-16T20:44:51;15.40;99.90
21928;DHT22;11128;51.096;17.190;2022-10-16T20:49:55;15.30;1.00
21928;DHT22;11128;51.096;17.190;2022-10-16T20:54:56;15.10;1.80
21928;DHT22;11128;51.096;17.190;2022-10-16T20:59:58;15.00;99.90
21928;DHT22;11128;51.096;17.190;2022-10-16T21:04:59;14.90;99.90
21928;DHT22;11128;51.096;17.190;2022-10-16T21:10:02;15.00;99.90
21928;DHT22;11128;51.096;17.190;2022-10-16T21:15:04;15.00;99.90
21928;DHT22;11128;51.096;17.190;2022-10-16T21:20:06;14.90;1.00
21928;DHT22;11128;51.096;17.190;2022-10-16T21:25:08;14.80;1.00
21928;DHT22;11128;51.096;17.190;2022-10-16T21:30:10;14.60;1.00
21928;DHT22;11128;51.096;17.190;2022-10-16T21:35:12;14.50;99.90
21928;DHT22;11128;51.096;17.190;2022-10-16T21:40:14;14.50;99.90
21928;DHT22;11128;51.096;17.190;2022-10-16T21:45:16;14.40;99.90
21928;DHT22;11128;51.096;17.190;2022-10-16T21:50:18;14.30;99.90
21928;DHT22;11128;51.096;17.190;2022-10-16T21:55:20;14.40;1.00
21928;DHT22;11128;51.096;17.190;2022-10-16T22:00:21;14.40;99.90
21928;DHT22;11128;51.096;17.190;2022-10-16T22:05:22;14.20;1.00
21928;DHT22;11128;51.096;17.190;2022-10-16T22:10:24;14.10;99.90
21928;DHT22;11128;51.096;17.190;2022-10-16T22:15:26;14.00;1.00
21928;DHT22;11128;51.096;17.190;2022-10-16T22:20:27;13.80;1.00
21928;DHT22;11128;51.096;17.190;2022-10-16T22:25:29;13.70;1.00
21928;DHT22;11128;51.096;17.190;2022-10-16T22:30:30;13.60;1.00
21928;DHT22;11128;51.096;17.190;2022-10-16T22:35:39;13.50;1.00
21928;DHT22;11128;51.096;17.190;2022-10-16T22:40:41;13.40;99.90
21928;DHT22;11128;51.096;17.190;2022-10-16T22:45:44;13.30;99.90
21928;DHT22;11128;51.096;17.190;2022-10-16T22:50:49;13.20;1.00
21928;DHT22;11128;51.096;17.190;2022-10-16T22:55:50;13.20;1.00
21928;DHT22;11128;51.096;17.190;2022-10-16T23:00:52;13.10;1.00
21928;DHT22;11128;51.096;17.190;2022-10-16T23:05:54;13.20;1.00
21928;DHT22;11128;51.096;17.190;2022-10-16T23:10:55;13.10;99.90
21928;DHT22;11128;51.096;17.190;2022-10-16T23:16:02;13.00;99.90
21928;DHT22;11128;51.096;17.190;2022-10-16T23:21:10;13.00;1.00
21928;DHT22;11128;51.096;17.190;2022-10-16T23:26:15;13.00;1.00
21928;DHT22;11128;51.096;17.190;2022-10-16T23:31:17;13.00;1.00
21928;DHT22;11128;51.096;17.190;2022-10-16T23:36:20;13.00;1.00
21928;DHT22;11128;51.096;17.190;2022-10-16T23:41:22;13.20;1.00
21928;DHT22;11128;51.096;17.190;2022-10-16T23:46:24;13.20;1.00
21928;DHT22;11128;51.096;17.190;2022-10-16T23:51:25;13.10;1.00
21928;DHT22;11128;51.096;17.190;2022-10-16T23:56:27;12.90;1.00
